createdAt,value
2016-12-10T00:00:31.780Z,8.42
2016-12-10T00:01:31.803Z,8.34
2016-12-10T00:02:31.835Z,8.41
2016-12-10T00:03:31.515Z,8.34
2016-12-10T00:04:32.165Z,8.36
2016-12-10T00:05:31.550Z,8.51
2016-12-10T00:06:31.900Z,8.52
2016-12-10T00:07:31.895Z,8.48
2016-12-10T00:08:31.910Z,8.44
2016-12-10T00:09:31.926Z,8.58
2016-12-10T00:10:31.976Z,8.49
2016-12-10T00:11:32.273Z,8.52
2016-12-10T00:12:31.976Z,8.53
2016-12-10T00:13:31.988Z,8.46
2016-12-10T00:14:32.006Z,8.42
2016-12-10T00:15:32.025Z,8.41
2016-12-10T00:16:32.070Z,8.38
2016-12-10T00:17:32.056Z,8.27
2016-12-10T00:18:32.657Z,8.16
2016-12-10T00:19:33.618Z,8.13
2016-12-10T00:20:32.989Z,8.19
2016-12-10T00:21:33.877Z,8.16
2016-12-10T00:22:33.496Z,8.2
2016-12-10T00:23:34.154Z,8.24
2016-12-10T00:24:32.611Z,8.16
2016-12-10T00:25:32.202Z,8.18
2016-12-10T00:26:32.203Z,8.23
2016-12-10T00:27:31.932Z,8.18
2016-12-10T00:28:32.230Z,8.18
2016-12-10T00:29:31.955Z,8.23
2016-12-10T00:30:32.263Z,8.2
2016-12-10T00:31:32.594Z,8.1
2016-12-10T00:32:32.296Z,8.13
2016-12-10T00:33:32.309Z,8.15
2016-12-10T00:34:32.016Z,8.15
2016-12-10T00:35:32.703Z,8.16
2016-12-10T00:36:32.040Z,8.12
2016-12-10T00:37:32.385Z,8.1
2016-12-10T00:38:32.069Z,8.08
2016-12-10T00:39:32.408Z,8.16
2016-12-10T00:40:32.418Z,8.1
2016-12-10T00:41:32.125Z,8.09
2016-12-10T00:42:32.137Z,8.1
2016-12-10T00:43:32.469Z,8.03
2016-12-10T00:44:32.480Z,7.98
2016-12-10T00:45:32.504Z,8
2016-12-10T00:46:32.514Z,7.97
2016-12-10T00:47:32.852Z,8.03
2016-12-10T00:48:32.862Z,7.98
2016-12-10T00:49:32.561Z,8.03
2016-12-10T00:50:32.265Z,8.03
2016-12-10T00:51:32.278Z,8.01
2016-12-10T00:52:32.317Z,7.9
2016-12-10T00:53:32.626Z,8.05
2016-12-10T00:54:32.954Z,7.9
2016-12-10T00:55:32.662Z,7.82
2016-12-10T00:56:32.989Z,7.79
2016-12-10T00:57:32.370Z,7.77
2016-12-10T00:58:32.390Z,7.82
2016-12-10T00:59:32.724Z,7.73
2016-12-10T01:00:32.421Z,7.66
2016-12-10T01:01:32.755Z,7.66
2016-12-10T01:02:32.768Z,7.66
2016-12-10T01:03:33.097Z,7.63
2016-12-10T01:04:33.117Z,7.67
2016-12-10T01:05:32.498Z,7.7
2016-12-10T01:06:32.511Z,7.75
2016-12-10T01:07:33.161Z,7.67
2016-12-10T01:08:32.547Z,7.69
2016-12-10T01:09:33.192Z,7.63
2016-12-10T01:10:33.212Z,7.67
2016-12-10T01:11:32.911Z,7.7
2016-12-10T01:12:32.607Z,7.77
2016-12-10T01:13:32.940Z,7.73
2016-12-10T01:14:32.963Z,7.76
2016-12-10T01:15:32.978Z,7.67
2016-12-10T01:16:32.679Z,7.63
2016-12-10T01:17:33.001Z,7.79
2016-12-10T01:18:33.019Z,7.77
2016-12-10T01:19:32.920Z,7.8
2016-12-10T01:20:33.048Z,7.77
2016-12-10T01:21:32.753Z,7.72
2016-12-10T01:22:32.769Z,7.47
2016-12-10T01:23:32.785Z,7.39
2016-12-10T01:24:32.797Z,7.42
2016-12-10T01:25:33.127Z,7.42
2016-12-10T01:26:32.841Z,7.29
2016-12-10T01:27:33.168Z,7.28
2016-12-10T01:28:32.864Z,7.25
2016-12-10T01:29:33.192Z,7.14
2016-12-10T01:30:33.207Z,7.05
2016-12-10T01:31:32.903Z,7.11
2016-12-10T01:32:33.554Z,6.95
2016-12-10T01:33:32.933Z,6.84
2016-12-10T01:34:32.950Z,6.97
2016-12-10T01:35:33.285Z,6.95
2016-12-10T01:36:32.986Z,6.95
2016-12-10T01:37:32.996Z,6.96
2016-12-10T01:38:33.329Z,6.95
2016-12-10T01:39:33.339Z,6.97
2016-12-10T01:40:33.694Z,6.93
2016-12-10T01:41:33.383Z,7.07
2016-12-10T01:42:33.395Z,7.2
2016-12-10T01:43:33.404Z,7.28
2016-12-10T01:44:33.416Z,7.35
2016-12-10T01:45:33.454Z,7.23
2016-12-10T01:46:33.449Z,7.29
2016-12-10T01:47:33.784Z,7.42
2016-12-10T01:48:33.480Z,7.32
2016-12-10T01:49:33.497Z,7.4
2016-12-10T01:50:33.508Z,7.36
2016-12-10T01:51:33.845Z,7.5
2016-12-10T01:52:33.222Z,7.58
2016-12-10T01:53:33.868Z,7.53
2016-12-10T01:54:33.571Z,7.56
2016-12-10T01:55:33.270Z,7.53
2016-12-10T01:56:33.915Z,7.61
2016-12-10T01:57:33.613Z,7.66
2016-12-10T01:58:33.637Z,7.66
2016-12-10T01:59:33.327Z,7.61
2016-12-10T02:00:33.679Z,7.53
2016-12-10T02:01:33.676Z,7.61
2016-12-10T02:02:33.691Z,7.57
2016-12-10T02:03:33.708Z,7.56
2016-12-10T02:04:33.723Z,7.56
2016-12-10T02:05:33.440Z,7.57
2016-12-10T02:06:33.753Z,7.43
2016-12-10T02:07:33.768Z,7.57
2016-12-10T02:08:33.781Z,7.43
2016-12-10T02:09:33.796Z,7.43
2016-12-10T02:10:33.816Z,7.4
2016-12-10T02:11:33.827Z,7.4
2016-12-10T02:12:34.168Z,7.4
2016-12-10T02:13:33.539Z,7.42
2016-12-10T02:14:33.872Z,7.36
2016-12-10T02:15:33.569Z,7.42
2016-12-10T02:16:33.904Z,7.42
2016-12-10T02:17:33.924Z,7.45
2016-12-10T02:18:34.249Z,7.42
2016-12-10T02:19:33.975Z,7.43
2016-12-10T02:20:33.959Z,7.53
2016-12-10T02:21:33.976Z,7.53
2016-12-10T02:22:33.678Z,7.6
2016-12-10T02:23:34.006Z,7.69
2016-12-10T02:24:34.021Z,7.66
2016-12-10T02:25:34.037Z,7.72
2016-12-10T02:26:34.369Z,7.73
2016-12-10T02:27:34.067Z,7.72
2016-12-10T02:28:34.084Z,7.76
2016-12-10T02:29:33.781Z,7.75
2016-12-10T02:30:34.426Z,7.67
2016-12-10T02:31:34.126Z,7.76
2016-12-10T02:32:34.155Z,7.79
2016-12-10T02:33:34.159Z,7.77
2016-12-10T02:34:34.172Z,7.77
2016-12-10T02:35:34.184Z,7.72
2016-12-10T02:36:34.222Z,7.47
2016-12-10T02:37:34.216Z,7.56
2016-12-10T02:38:33.916Z,7.47
2016-12-10T02:39:34.250Z,7.32
2016-12-10T02:40:35.162Z,7.28
2016-12-10T02:41:35.182Z,7.24
2016-12-10T02:42:35.148Z,7.38
2016-12-10T02:43:34.758Z,7.35
2016-12-10T02:44:34.752Z,7.31
2016-12-10T02:45:34.647Z,7.35
2016-12-10T02:46:35.526Z,7.18
2016-12-10T02:47:35.372Z,7.33
2016-12-10T02:48:35.004Z,7.24
2016-12-10T02:49:34.712Z,7.17
2016-12-10T02:50:34.413Z,7.15
2016-12-10T02:51:34.113Z,7.07
2016-12-10T02:52:34.443Z,7.23
2016-12-10T02:53:34.461Z,7.17
2016-12-10T02:54:34.474Z,7.15
2016-12-10T02:55:34.195Z,7.11
2016-12-10T02:56:34.819Z,7
2016-12-10T02:57:34.839Z,7.11
2016-12-10T02:58:34.536Z,7.11
2016-12-10T02:59:34.548Z,7.17
2016-12-10T03:00:34.537Z,7.11
2016-12-10T03:01:34.612Z,7.11
2016-12-10T03:02:49.207Z,6.99
2016-12-10T03:03:35.252Z,7.07
2016-12-10T03:04:35.449Z,7.14
2016-12-10T03:05:35.908Z,7.13
2016-12-10T03:06:35.916Z,7.13
2016-12-10T03:07:35.391Z,7.05
2016-12-10T03:08:35.235Z,7.07
2016-12-10T03:09:35.456Z,6.95
2016-12-10T03:10:35.716Z,6.96
2016-12-10T03:11:35.362Z,6.95
2016-12-10T03:12:35.018Z,6.97
2016-12-10T03:13:35.894Z,6.95
2016-12-10T03:14:35.026Z,7.05
2016-12-10T03:15:35.180Z,6.89
2016-12-10T03:16:35.403Z,6.88
2016-12-10T03:17:35.097Z,6.97
2016-12-10T03:18:35.396Z,6.87
2016-12-10T03:19:35.815Z,6.75
2016-12-10T03:20:34.798Z,6.78
2016-12-10T03:21:35.862Z,6.74
2016-12-10T03:22:36.163Z,6.78
2016-12-10T03:23:35.616Z,6.74
2016-12-10T03:24:34.846Z,6.74
2016-12-10T03:25:35.097Z,6.78
2016-12-10T03:26:35.248Z,6.87
2016-12-10T03:27:35.255Z,6.88
2016-12-10T03:28:35.150Z,6.97
2016-12-10T03:29:35.569Z,7.02
2016-12-10T03:30:35.589Z,7.1
2016-12-10T03:31:35.915Z,7.13
2016-12-10T03:32:36.003Z,7.15
2016-12-10T03:33:36.488Z,7.15
2016-12-10T03:34:35.024Z,7.1
2016-12-10T03:35:35.602Z,7.15
2016-12-10T03:36:35.671Z,7.28
2016-12-10T03:37:35.936Z,7.36
2016-12-10T03:38:35.669Z,7.28
2016-12-10T03:39:34.819Z,7.24
2016-12-10T03:40:35.151Z,7.36
2016-12-10T03:41:35.166Z,7.33
2016-12-10T03:42:35.496Z,7.33
2016-12-10T03:43:35.194Z,7.42
2016-12-10T03:44:34.896Z,7.43
2016-12-10T03:45:35.541Z,7.45
2016-12-10T03:46:35.241Z,7.36
2016-12-10T03:47:34.940Z,7.47
2016-12-10T03:48:35.268Z,7.43
2016-12-10T03:49:35.286Z,7.5
2016-12-10T03:50:35.297Z,7.39
2016-12-10T03:51:34.998Z,7.43
2016-12-10T03:52:35.333Z,7.47
2016-12-10T03:53:35.345Z,7.45
2016-12-10T03:54:35.357Z,7.47
2016-12-10T03:55:35.375Z,7.4
2016-12-10T03:56:35.398Z,7.47
2016-12-10T03:57:35.718Z,7.47
2016-12-10T03:58:35.416Z,7.57
2016-12-10T03:59:35.445Z,7.66
2016-12-10T04:00:35.764Z,7.69
2016-12-10T04:01:35.463Z,7.8
2016-12-10T04:02:35.477Z,7.61
2016-12-10T04:03:35.492Z,7.72
2016-12-10T04:04:35.194Z,7.51
2016-12-10T04:05:35.837Z,7.58
2016-12-10T04:06:35.537Z,7.56
2016-12-10T04:07:35.553Z,7.57
2016-12-10T04:08:35.888Z,7.73
2016-12-10T04:09:35.268Z,7.75
2016-12-10T04:10:35.602Z,7.79
2016-12-10T04:11:35.614Z,7.85
2016-12-10T04:12:35.627Z,7.91
2016-12-10T04:13:35.408Z,7.87
2016-12-10T04:14:35.672Z,7.97
2016-12-10T04:15:35.672Z,7.95
2016-12-10T04:16:35.375Z,7.85
2016-12-10T04:17:35.729Z,7.82
2016-12-10T04:18:35.739Z,7.77
2016-12-10T04:19:35.420Z,7.82
2016-12-10T04:20:35.749Z,7.77
2016-12-10T04:21:35.768Z,7.8
2016-12-10T04:22:35.781Z,7.79
2016-12-10T04:23:36.113Z,7.73
2016-12-10T04:24:35.810Z,7.79
2016-12-10T04:25:35.515Z,7.83
2016-12-10T04:26:36.157Z,7.83
2016-12-10T04:27:35.542Z,7.83
2016-12-10T04:28:36.203Z,7.85
2016-12-10T04:29:35.894Z,7.82
2016-12-10T04:30:35.905Z,7.87
2016-12-10T04:31:36.053Z,7.88
2016-12-10T04:32:35.950Z,7.91
2016-12-10T04:33:35.961Z,7.87
2016-12-10T04:34:35.646Z,7.82
2016-12-10T04:35:35.981Z,7.9
2016-12-10T04:36:36.337Z,7.88
2016-12-10T04:37:36.004Z,7.83
2016-12-10T04:38:36.022Z,7.87
2016-12-10T04:39:36.353Z,7.8
2016-12-10T04:40:36.051Z,7.8
2016-12-10T04:41:36.068Z,7.91
2016-12-10T04:42:36.085Z,7.85
2016-12-10T04:43:36.416Z,7.85
2016-12-10T04:44:36.116Z,7.91
2016-12-10T04:45:36.446Z,7.87
2016-12-10T04:46:35.831Z,7.87
2016-12-10T04:47:35.844Z,7.93
2016-12-10T04:48:35.858Z,7.93
2016-12-10T04:49:35.877Z,7.93
2016-12-10T04:50:36.522Z,8.03
2016-12-10T04:51:36.220Z,7.95
2016-12-10T04:52:35.923Z,7.88
2016-12-10T04:53:36.254Z,7.94
2016-12-10T04:54:36.052Z,7.97
2016-12-10T04:55:36.282Z,7.85
2016-12-10T04:56:36.299Z,7.83
2016-12-10T04:57:36.629Z,7.75
2016-12-10T04:58:36.326Z,7.9
2016-12-10T04:59:36.342Z,7.75
2016-12-10T05:00:36.355Z,7.69
2016-12-10T05:01:36.695Z,7.7
2016-12-10T05:02:36.394Z,7.75
2016-12-10T05:03:36.404Z,7.76
2016-12-10T05:04:36.421Z,7.63
2016-12-10T05:05:36.120Z,7.6
2016-12-10T05:06:36.448Z,7.69
2016-12-10T05:07:36.463Z,7.6
2016-12-10T05:08:36.488Z,7.6
2016-12-10T05:09:36.500Z,7.58
2016-12-10T05:10:36.195Z,7.56
2016-12-10T05:11:36.843Z,7.42
2016-12-10T05:12:36.552Z,7.43
2016-12-10T05:13:36.247Z,7.36
2016-12-10T05:14:36.568Z,7.48
2016-12-10T05:15:36.905Z,7.54
2016-12-10T05:16:36.600Z,7.43
2016-12-10T05:17:36.300Z,7.39
2016-12-10T05:18:36.656Z,7.38
2016-12-10T05:19:36.644Z,7.21
2016-12-10T05:20:36.348Z,7.32
2016-12-10T05:21:36.674Z,7.32
2016-12-10T05:22:37.004Z,7.33
2016-12-10T05:23:37.028Z,7.39
2016-12-10T05:24:37.039Z,7.45
2016-12-10T05:25:36.419Z,7.43
2016-12-10T05:26:36.750Z,7.5
2016-12-10T05:27:36.774Z,7.47
2016-12-10T05:28:36.471Z,7.47
2016-12-10T05:29:36.793Z,7.5
2016-12-10T05:30:36.493Z,7.51
2016-12-10T05:31:36.849Z,7.56
2016-12-10T05:32:37.152Z,7.56
2016-12-10T05:33:36.854Z,7.51
2016-12-10T05:34:36.871Z,7.45
2016-12-10T05:35:36.571Z,7.54
2016-12-10T05:36:36.901Z,7.58
2016-12-10T05:37:36.603Z,7.48
2016-12-10T05:38:37.245Z,7.54
2016-12-10T05:39:36.947Z,7.61
2016-12-10T05:40:36.955Z,7.45
2016-12-10T05:41:37.311Z,7.42
2016-12-10T05:42:36.990Z,7.42
2016-12-10T05:43:37.002Z,7.38
2016-12-10T05:44:37.336Z,7.48
2016-12-10T05:45:37.352Z,7.36
2016-12-10T05:46:37.367Z,7.48
2016-12-10T05:47:37.063Z,7.5
2016-12-10T05:48:37.392Z,7.56
2016-12-10T05:49:37.094Z,7.36
2016-12-10T05:50:37.136Z,7.36
2016-12-10T05:51:37.445Z,7.48
2016-12-10T05:52:36.825Z,7.38
2016-12-10T05:53:37.155Z,7.47
2016-12-10T05:54:37.486Z,7.54
2016-12-10T05:55:37.185Z,7.45
2016-12-10T05:56:37.204Z,7.38
2016-12-10T05:57:36.901Z,7.42
2016-12-10T05:58:37.543Z,7.45
2016-12-10T05:59:37.247Z,7.38
2016-12-10T06:00:37.261Z,7.42
2016-12-10T06:01:37.273Z,7.45
2016-12-10T06:02:37.287Z,7.33
2016-12-10T06:03:37.632Z,7.42
2016-12-10T06:04:37.008Z,7.39
2016-12-10T06:05:37.046Z,7.38
2016-12-10T06:06:37.346Z,7.6
2016-12-10T06:07:37.679Z,7.39
2016-12-10T06:08:37.060Z,7.48
2016-12-10T06:09:37.393Z,7.42
2016-12-10T06:10:37.406Z,7.48
2016-12-10T06:11:37.442Z,7.43
2016-12-10T06:12:37.752Z,7.47
2016-12-10T06:13:37.450Z,7.47
2016-12-10T06:14:37.148Z,7.6
2016-12-10T06:15:37.167Z,7.61
2016-12-10T06:16:37.495Z,7.5
2016-12-10T06:17:37.194Z,7.48
2016-12-10T06:18:37.853Z,7.58
2016-12-10T06:19:37.858Z,7.63
2016-12-10T06:20:37.551Z,7.6
2016-12-10T06:21:37.575Z,7.67
2016-12-10T06:22:37.267Z,7.7
2016-12-10T06:23:37.916Z,7.54
2016-12-10T06:24:37.304Z,7.56
2016-12-10T06:25:37.630Z,7.54
2016-12-10T06:26:37.959Z,7.6
2016-12-10T06:27:37.970Z,7.61
2016-12-10T06:28:37.677Z,7.72
2016-12-10T06:29:37.691Z,7.63
2016-12-10T06:30:37.387Z,7.69
2016-12-10T06:31:37.719Z,7.73
2016-12-10T06:32:37.419Z,7.79
2016-12-10T06:33:37.751Z,7.87
2016-12-10T06:34:38.081Z,7.91
2016-12-10T06:35:38.097Z,7.97
2016-12-10T06:36:38.108Z,8.06
2016-12-10T06:37:37.838Z,8.12
2016-12-10T06:38:37.820Z,8.03
2016-12-10T06:39:37.555Z,8.03
2016-12-10T06:40:37.538Z,7.91
2016-12-10T06:41:38.215Z,7.83
2016-12-10T06:42:37.589Z,7.9
2016-12-10T06:43:37.904Z,7.76
2016-12-10T06:44:37.914Z,7.7
2016-12-10T06:45:38.247Z,7.72
2016-12-10T06:46:37.942Z,7.75
2016-12-10T06:47:37.643Z,7.82
2016-12-10T06:48:37.660Z,7.76
2016-12-10T06:49:37.990Z,7.88
2016-12-10T06:50:37.689Z,7.77
2016-12-10T06:51:37.706Z,7.87
2016-12-10T06:52:38.035Z,7.8
2016-12-10T06:53:38.056Z,7.88
2016-12-10T06:54:37.754Z,7.98
2016-12-10T06:55:38.083Z,7.97
2016-12-10T06:56:38.094Z,8.01
2016-12-10T06:57:38.110Z,7.95
2016-12-10T06:58:38.444Z,8.06
2016-12-10T06:59:37.826Z,8.03
2016-12-10T07:00:38.156Z,8.08
2016-12-10T07:01:38.169Z,8.08
2016-12-10T07:02:37.876Z,7.98
2016-12-10T07:03:38.202Z,8.03
2016-12-10T07:04:38.555Z,7.87
2016-12-10T07:05:38.229Z,7.93
2016-12-10T07:06:38.563Z,7.88
2016-12-10T07:07:38.264Z,7.75
2016-12-10T07:08:38.606Z,7.75
2016-12-10T07:09:38.611Z,7.87
2016-12-10T07:10:37.992Z,7.94
2016-12-10T07:11:38.017Z,7.98
2016-12-10T07:12:38.670Z,8
2016-12-10T07:13:38.673Z,8.09
2016-12-10T07:14:38.685Z,8.13
2016-12-10T07:15:38.382Z,8.08
2016-12-10T07:16:38.780Z,8.03
2016-12-10T07:17:38.434Z,8.08
2016-12-10T07:18:38.455Z,8.05
2016-12-10T07:19:38.129Z,8.06
2016-12-10T07:20:38.461Z,8.06
2016-12-10T07:21:38.788Z,8.1
2016-12-10T07:22:38.806Z,8.05
2016-12-10T07:23:38.829Z,8
2016-12-10T07:24:38.522Z,8.15
2016-12-10T07:25:38.539Z,8.15
2016-12-10T07:26:38.554Z,8.2
2016-12-10T07:27:38.580Z,8.33
2016-12-10T07:28:38.270Z,8.13
2016-12-10T07:29:38.281Z,8.27
2016-12-10T07:30:38.955Z,8.28
2016-12-10T07:31:38.645Z,8.24
2016-12-10T07:32:38.339Z,8.16
2016-12-10T07:33:38.350Z,8.15
2016-12-10T07:34:38.360Z,8.13
2016-12-10T07:35:38.715Z,7.98
2016-12-10T07:36:38.709Z,8.09
2016-12-10T07:37:39.039Z,8.08
2016-12-10T07:38:39.052Z,8.12
2016-12-10T07:39:38.464Z,8
2016-12-10T07:40:38.800Z,8.15
2016-12-10T07:41:39.103Z,8.01
2016-12-10T07:42:39.116Z,7.97
2016-12-10T07:43:38.816Z,7.87
2016-12-10T07:44:38.514Z,7.98
2016-12-10T07:45:38.531Z,8.1
2016-12-10T07:46:38.860Z,8.18
2016-12-10T07:47:38.877Z,8.16
2016-12-10T07:48:38.890Z,8.16
2016-12-10T07:49:38.931Z,8.2
2016-12-10T07:50:38.604Z,8.24
2016-12-10T07:51:38.619Z,8.38
2016-12-10T07:52:38.949Z,8.3
2016-12-10T07:53:39.283Z,8.38
2016-12-10T07:54:39.004Z,8.28
2016-12-10T07:55:39.323Z,8.3
2016-12-10T07:56:39.328Z,8.28
2016-12-10T07:57:39.062Z,8.37
2016-12-10T07:58:39.050Z,8.38
2016-12-10T07:59:39.105Z,8.41
2016-12-10T08:00:38.761Z,8.49
2016-12-10T08:01:39.085Z,8.46
2016-12-10T08:02:39.102Z,8.44
2016-12-10T08:03:39.123Z,8.53
2016-12-10T08:04:39.137Z,8.58
2016-12-10T08:05:38.830Z,8.6
2016-12-10T08:06:39.162Z,8.58
2016-12-10T08:07:39.494Z,8.49
2016-12-10T08:08:39.201Z,8.49
2016-12-10T08:09:39.211Z,8.48
2016-12-10T08:10:39.543Z,8.56
2016-12-10T08:11:39.239Z,8.51
2016-12-10T08:12:38.944Z,8.46
2016-12-10T08:13:38.953Z,8.49
2016-12-10T08:14:39.287Z,8.37
2016-12-10T08:15:39.616Z,8.42
2016-12-10T08:16:39.003Z,8.48
2016-12-10T08:17:39.329Z,8.37
2016-12-10T08:18:39.350Z,8.51
2016-12-10T08:19:39.364Z,8.51
2016-12-10T08:20:39.693Z,8.49
2016-12-10T08:21:39.079Z,8.58
2016-12-10T08:22:39.422Z,8.45
2016-12-10T08:23:39.424Z,8.48
2016-12-10T08:24:39.437Z,8.42
2016-12-10T08:25:39.462Z,8.63
2016-12-10T08:26:39.788Z,8.49
2016-12-10T08:27:39.486Z,8.58
2016-12-10T08:28:39.823Z,8.52
2016-12-10T08:29:39.528Z,8.67
2016-12-10T08:30:39.224Z,8.67
2016-12-10T08:31:39.552Z,8.71
2016-12-10T08:32:39.568Z,8.71
2016-12-10T08:33:39.899Z,8.78
2016-12-10T08:34:39.286Z,8.84
2016-12-10T08:35:39.300Z,8.94
2016-12-10T08:36:39.629Z,9
2016-12-10T08:37:39.647Z,8.99
2016-12-10T08:38:39.346Z,8.99
2016-12-10T08:39:39.676Z,9
2016-12-10T08:40:39.379Z,8.97
2016-12-10T08:41:40.023Z,8.97
2016-12-10T08:42:40.043Z,9.08
2016-12-10T08:43:39.744Z,9.02
2016-12-10T08:44:39.757Z,9.03
2016-12-10T08:45:40.093Z,9.04
2016-12-10T08:46:40.109Z,9.08
2016-12-10T08:47:40.127Z,9.1
2016-12-10T08:48:40.144Z,9.08
2016-12-10T08:49:39.522Z,8.95
2016-12-10T08:50:39.853Z,9.13
2016-12-10T08:51:39.879Z,9.13
2016-12-10T08:52:40.199Z,9.1
2016-12-10T08:53:39.588Z,9.04
2016-12-10T08:54:39.918Z,9.14
2016-12-10T08:55:39.935Z,9.28
2016-12-10T08:56:39.949Z,9.36
2016-12-10T08:57:39.648Z,9.37
2016-12-10T08:58:40.301Z,9.37
2016-12-10T08:59:39.689Z,9.37
2016-12-10T09:00:40.015Z,9.32
2016-12-10T09:01:39.715Z,9.41
2016-12-10T09:02:40.048Z,9.48
2016-12-10T09:03:40.380Z,9.65
2016-12-10T09:04:39.763Z,9.69
2016-12-10T09:05:40.097Z,9.76
2016-12-10T09:06:40.113Z,9.76
2016-12-10T09:07:40.445Z,9.82
2016-12-10T09:08:40.144Z,10.01
2016-12-10T09:09:40.158Z,9.94
2016-12-10T09:10:39.858Z,10.05
2016-12-10T09:11:40.194Z,10.34
2016-12-10T09:12:40.209Z,10.57
2016-12-10T09:13:40.229Z,11.08
2016-12-10T09:14:40.241Z,11.57
2016-12-10T09:15:40.294Z,11.66
2016-12-10T09:16:39.963Z,11.62
2016-12-10T09:17:40.609Z,11.7
2016-12-10T09:18:39.997Z,11.7
2016-12-10T09:19:40.015Z,11.87
2016-12-10T09:20:40.027Z,12.2
2016-12-10T09:21:40.380Z,12.67
2016-12-10T09:22:40.699Z,12.94
2016-12-10T09:23:40.088Z,13.08
2016-12-10T09:24:40.413Z,13.18
2016-12-10T09:25:40.452Z,13.22
2016-12-10T09:26:40.451Z,13.27
2016-12-10T09:27:40.472Z,13.62
2016-12-10T09:28:40.821Z,13.74
2016-12-10T09:29:40.517Z,14.03
2016-12-10T09:30:40.530Z,14.22
2016-12-10T09:31:40.868Z,14.32
2016-12-10T09:32:40.569Z,14.43
2016-12-10T09:33:40.269Z,14.48
2016-12-10T09:34:40.922Z,14.53
2016-12-10T09:35:40.941Z,14.62
2016-12-10T09:36:40.660Z,14.66
2016-12-10T09:37:40.673Z,14.7
2016-12-10T09:38:41.004Z,14.72
2016-12-10T09:39:41.038Z,14.84
2016-12-10T09:40:40.740Z,14.85
2016-12-10T09:41:41.069Z,15.04
2016-12-10T09:42:40.771Z,15.17
2016-12-10T09:43:41.106Z,15.29
2016-12-10T09:44:41.128Z,15.36
2016-12-10T09:45:40.831Z,15.51
2016-12-10T09:46:40.853Z,15.55
2016-12-10T09:47:40.900Z,15.73
2016-12-10T09:48:40.898Z,15.9
2016-12-10T09:49:40.600Z,16.01
2016-12-10T09:50:40.623Z,16.1
2016-12-10T09:51:40.648Z,16.24
2016-12-10T09:52:40.667Z,16.36
2016-12-10T09:53:40.689Z,16.47
2016-12-10T09:54:40.713Z,16.53
2016-12-10T09:55:40.733Z,16.66
2016-12-10T09:56:41.073Z,16.58
2016-12-10T09:57:41.090Z,16.53
2016-12-10T09:58:41.115Z,16.69
2016-12-10T09:59:41.139Z,16.79
2016-12-10T10:00:41.160Z,16.94
2016-12-10T10:01:41.529Z,16.99
2016-12-10T10:02:41.205Z,17.09
2016-12-10T10:03:40.914Z,17.09
2016-12-10T10:04:41.571Z,17.31
2016-12-10T10:05:40.959Z,17.33
2016-12-10T10:06:40.989Z,17.39
2016-12-10T10:07:41.639Z,17.38
2016-12-10T10:08:41.351Z,17.54
2016-12-10T10:09:41.367Z,17.52
2016-12-10T10:10:41.708Z,17.67
2016-12-10T10:11:41.414Z,17.74
2016-12-10T10:12:41.120Z,17.9
2016-12-10T10:13:41.142Z,18
2016-12-10T10:14:41.481Z,18.08
2016-12-10T10:15:41.518Z,18.33
2016-12-10T10:16:41.843Z,18.28
2016-12-10T10:17:41.867Z,18.33
2016-12-10T10:18:41.572Z,18.37
2016-12-10T10:19:41.916Z,18.5
2016-12-10T10:20:41.622Z,18.62
2016-12-10T10:21:41.979Z,18.7
2016-12-10T10:22:41.671Z,18.77
2016-12-10T10:23:41.697Z,18.88
2016-12-10T10:24:42.039Z,18.98
2016-12-10T10:25:41.424Z,19.16
2016-12-10T10:26:42.091Z,19.14
2016-12-10T10:27:41.474Z,19.19
2016-12-10T10:28:41.813Z,19.19
2016-12-10T10:29:41.520Z,19.19
2016-12-10T10:30:41.860Z,19.31
2016-12-10T10:31:41.884Z,19.45
2016-12-10T10:32:42.223Z,19.59
2016-12-10T10:33:41.619Z,19.56
2016-12-10T10:34:41.957Z,19.71
2016-12-10T10:35:41.985Z,19.74
2016-12-10T10:36:42.005Z,19.54
2016-12-10T10:37:41.718Z,19.55
2016-12-10T10:38:42.055Z,19.64
2016-12-10T10:39:42.396Z,19.79
2016-12-10T10:40:41.787Z,19.58
2016-12-10T10:41:42.128Z,19.66
2016-12-10T10:42:42.174Z,19.76
2016-12-10T10:43:41.863Z,19.94
2016-12-10T10:44:42.199Z,20.02
2016-12-10T10:45:42.227Z,20.1
2016-12-10T10:46:42.565Z,19.88
2016-12-10T10:47:42.277Z,20
2016-12-10T10:48:42.310Z,20.18
2016-12-10T10:49:42.008Z,20.29
2016-12-10T10:50:42.660Z,20.37
2016-12-10T10:51:42.394Z,20.34
2016-12-10T10:52:42.086Z,20.37
2016-12-10T10:53:42.106Z,20.48
2016-12-10T10:54:42.143Z,20.51
2016-12-10T10:55:42.789Z,20.37
2016-12-10T10:56:42.542Z,20.48
2016-12-10T10:57:42.855Z,20.25
2016-12-10T10:58:42.552Z,20.22
2016-12-10T10:59:42.256Z,20.37
2016-12-10T11:00:42.915Z,20.58
2016-12-10T11:01:42.933Z,20.52
2016-12-10T11:02:42.959Z,20.48
2016-12-10T11:03:42.669Z,20.55
2016-12-10T11:04:42.694Z,20.77
2016-12-10T11:05:42.716Z,20.56
2016-12-10T11:06:43.062Z,20.75
2016-12-10T11:07:42.768Z,20.77
2016-12-10T11:08:43.110Z,20.84
2016-12-10T11:09:42.821Z,20.88
2016-12-10T11:10:42.523Z,20.85
2016-12-10T11:11:42.865Z,20.82
2016-12-10T11:12:42.935Z,20.84
2016-12-10T11:13:42.598Z,20.75
2016-12-10T11:14:42.625Z,20.85
2016-12-10T11:15:42.667Z,20.8
2016-12-10T11:16:43.306Z,20.81
2016-12-10T11:17:43.045Z,20.7
2016-12-10T11:18:43.353Z,20.77
2016-12-10T11:19:43.062Z,20.88
2016-12-10T11:20:43.415Z,20.81
2016-12-10T11:21:43.114Z,20.69
2016-12-10T11:22:43.162Z,20.52
2016-12-10T11:23:43.190Z,20.66
2016-12-10T11:24:43.188Z,20.85
2016-12-10T11:25:43.529Z,20.93
2016-12-10T11:26:43.237Z,21.05
2016-12-10T11:27:43.581Z,20.99
2016-12-10T11:28:43.287Z,20.96
2016-12-10T11:29:43.329Z,21.03
2016-12-10T11:30:43.336Z,21.06
2016-12-10T11:31:43.680Z,21.12
2016-12-10T11:32:43.079Z,21.24
2016-12-10T11:33:43.411Z,21.24
2016-12-10T11:34:43.440Z,21.25
2016-12-10T11:35:43.777Z,21.37
2016-12-10T11:36:43.486Z,21.35
2016-12-10T11:37:43.826Z,21.3
2016-12-10T11:38:43.868Z,21.32
2016-12-10T11:39:43.877Z,21.37
2016-12-10T11:40:43.915Z,21.21
2016-12-10T11:41:43.668Z,21.33
2016-12-10T11:42:43.635Z,21.35
2016-12-10T11:43:43.346Z,21.32
2016-12-10T11:44:43.689Z,21.5
2016-12-10T11:45:43.396Z,21.5
2016-12-10T11:46:43.739Z,21.57
2016-12-10T11:47:44.077Z,21.52
2016-12-10T11:48:43.789Z,21.45
2016-12-10T11:49:43.514Z,21.35
2016-12-10T11:50:43.528Z,21.45
2016-12-10T11:51:43.863Z,21.61
2016-12-10T11:52:43.570Z,21.64
2016-12-10T11:53:43.595Z,21.7
2016-12-10T11:54:43.939Z,21.76
2016-12-10T11:55:43.649Z,21.73
2016-12-10T11:56:44.308Z,21.76
2016-12-10T11:57:44.016Z,21.83
2016-12-10T11:58:44.357Z,21.8
2016-12-10T11:59:44.070Z,21.79
2016-12-10T12:00:43.771Z,21.79
2016-12-10T12:01:44.110Z,21.75
2016-12-10T12:02:44.145Z,21.8
2016-12-10T12:03:44.209Z,21.89
2016-12-10T12:04:44.196Z,21.93
2016-12-10T12:05:43.904Z,22
2016-12-10T12:06:44.244Z,22
2016-12-10T12:07:43.949Z,22.04
2016-12-10T12:08:43.976Z,22.02
2016-12-10T12:09:44.006Z,22.06
2016-12-10T12:10:44.345Z,21.98
2016-12-10T12:11:44.371Z,21.98
2016-12-10T12:12:44.734Z,22.02
2016-12-10T12:13:44.424Z,22.08
2016-12-10T12:14:44.449Z,21.99
2016-12-10T12:15:44.476Z,22.08
2016-12-10T12:16:44.516Z,22.04
2016-12-10T12:17:44.841Z,22.15
2016-12-10T12:18:44.234Z,22.11
2016-12-10T12:19:44.264Z,22.14
2016-12-10T12:20:44.287Z,22.22
2016-12-10T12:21:44.330Z,22.15
2016-12-10T12:22:44.652Z,22.07
2016-12-10T12:23:44.678Z,22.13
2016-12-10T12:24:44.706Z,21.92
2016-12-10T12:25:44.413Z,21.95
2016-12-10T12:26:44.759Z,22.15
2016-12-10T12:27:45.104Z,22.22
2016-12-10T12:28:44.808Z,22.2
2016-12-10T12:29:45.147Z,22.25
2016-12-10T12:30:44.560Z,22.36
2016-12-10T12:31:44.883Z,22.29
2016-12-10T12:32:44.925Z,22.29
2016-12-10T12:33:44.937Z,22.23
2016-12-10T12:34:44.960Z,22.3
2016-12-10T12:35:45.324Z,22.32
2016-12-10T12:36:44.701Z,22.3
2016-12-10T12:37:44.723Z,22.32
2016-12-10T12:38:45.064Z,22.36
2016-12-10T12:39:45.406Z,22.35
2016-12-10T12:40:44.802Z,22.43
2016-12-10T12:41:45.143Z,22.41
2016-12-10T12:42:44.856Z,22.29
2016-12-10T12:43:45.542Z,22.25
2016-12-10T12:44:44.907Z,22.36
2016-12-10T12:45:45.247Z,22.29
2016-12-10T12:46:45.616Z,22.28
2016-12-10T12:47:45.296Z,22.22
2016-12-10T12:48:45.004Z,22.29
2016-12-10T12:49:45.348Z,22.36
2016-12-10T12:50:45.691Z,22.3
2016-12-10T12:51:45.417Z,22.29
2016-12-10T12:52:45.116Z,22.3
2016-12-10T12:53:45.450Z,22.26
2016-12-10T12:54:45.794Z,22.35
2016-12-10T12:55:45.826Z,22.26
2016-12-10T12:56:45.845Z,22
2016-12-10T12:57:45.239Z,22.06
2016-12-10T12:58:45.902Z,22.08
2016-12-10T12:59:45.603Z,22.15
2016-12-10T13:00:45.644Z,22.07
2016-12-10T13:01:45.661Z,22.1
2016-12-10T13:02:45.683Z,22.15
2016-12-10T13:03:45.708Z,22.22
2016-12-10T13:04:45.741Z,22.2
2016-12-10T13:05:45.443Z,22.28
2016-12-10T13:06:46.104Z,22.36
2016-12-10T13:07:45.809Z,22.36
2016-12-10T13:08:45.837Z,22.36
2016-12-10T13:09:46.181Z,22.36
2016-12-10T13:10:45.884Z,22.3
2016-12-10T13:11:45.603Z,22.29
2016-12-10T13:12:45.626Z,22.22
2016-12-10T13:13:45.649Z,22.18
2016-12-10T13:14:45.677Z,22.29